createdAt,value
2019-04-25T00:03:18.273Z,10.80
2019-04-25T00:05:53.975Z,10.70
2019-04-25T00:08:24.448Z,10.80
2019-04-25T00:10:56.275Z,10.80
2019-04-25T00:13:41.917Z,10.80
2019-04-25T00:16:21.167Z,10.70
2019-04-25T00:27:16.497Z,10.70
2019-04-25T00:29:48.754Z,10.80
2019-04-25T00:32:21.676Z,10.60
2019-04-25T00:34:52.851Z,10.50
2019-04-25T00:37:24.246Z,10.50
2019-04-25T00:39:53.636Z,10.50
2019-04-25T00:42:23.582Z,10.70
2019-04-25T00:44:53.829Z,10.50
2019-04-25T00:47:23.827Z,10.40
2019-04-25T00:49:53.681Z,10.50
2019-04-25T00:52:24.186Z,10.50
2019-04-25T00:55:02.075Z,10.50
2019-04-25T00:57:32.450Z,10.40
2019-04-25T01:00:33.308Z,10.40
2019-04-25T01:03:28.785Z,10.50
2019-04-25T01:05:59.068Z,10.50
2019-04-25T01:08:34.016Z,10.60
2019-04-25T01:11:03.794Z,10.40
2019-04-25T01:13:34.143Z,10.40
2019-04-25T01:16:08.274Z,10.30
2019-04-25T01:18:43.550Z,10.30
2019-04-25T01:21:16.664Z,10.40
2019-04-25T01:23:47.922Z,10.30
2019-04-25T01:26:21.732Z,10.20
2019-04-25T01:28:54.076Z,10.20
2019-04-25T01:31:26.741Z,10.20
2019-04-25T01:34:15.030Z,10.30
2019-04-25T01:37:01.516Z,10.10
2019-04-25T01:39:51.163Z,10.20
2019-04-25T01:42:36.699Z,10.10
2019-04-25T01:45:08.660Z,10.10
2019-04-25T01:47:38.977Z,9.90
2019-04-25T01:50:09.606Z,9.90
2019-04-25T01:52:41.071Z,10.00
2019-04-25T01:55:11.026Z,9.90
2019-04-25T01:57:40.943Z,10.00
2019-04-25T02:00:13.966Z,10.00
2019-04-25T02:02:44.556Z,10.00
2019-04-25T02:05:15.492Z,9.80
2019-04-25T02:07:46.404Z,9.90
2019-04-25T02:10:16.450Z,9.80
2019-04-25T02:16:30.984Z,9.80
2019-04-25T02:19:04.444Z,9.90
2019-04-25T02:21:39.390Z,9.80
2019-04-25T02:24:11.367Z,9.90
2019-04-25T02:26:43.820Z,9.90
2019-04-25T02:29:19.092Z,10.00
2019-04-25T02:31:59.220Z,9.90
2019-04-25T02:34:28.096Z,10.00
2019-04-25T02:37:01.500Z,10.00
2019-04-25T02:39:30.654Z,10.00
2019-04-25T02:42:06.279Z,10.00
2019-04-25T02:44:34.705Z,10.00
2019-04-25T02:47:14.842Z,9.90
2019-04-25T02:50:26.448Z,9.90
2019-04-25T02:53:07.047Z,9.80
2019-04-25T02:55:37.705Z,9.80
2019-04-25T02:58:10.295Z,9.70
2019-04-25T03:00:55.109Z,9.80
2019-04-25T03:03:15.813Z,9.80
2019-04-25T03:05:57.297Z,9.50
2019-04-25T03:08:30.558Z,9.70
2019-04-25T03:11:05.771Z,9.70
2019-04-25T03:13:44.144Z,9.70
2019-04-25T03:16:14.659Z,9.80
2019-04-25T03:24:25.245Z,9.60
2019-04-25T03:26:59.671Z,9.60
2019-04-25T03:29:32.203Z,9.60
2019-04-25T03:32:04.062Z,9.60
2019-04-25T03:34:35.313Z,9.60
2019-04-25T03:37:06.454Z,9.60
2019-04-25T03:39:36.480Z,9.60
2019-04-25T03:42:06.272Z,9.50
2019-04-25T03:44:58.927Z,9.50
2019-04-25T03:47:36.744Z,9.50
2019-04-25T03:52:57.655Z,9.40
2019-04-25T03:55:27.795Z,9.40
2019-04-25T03:58:07.540Z,9.30
2019-04-25T04:06:04.394Z,9.30
2019-04-25T04:08:58.464Z,9.40
2019-04-25T04:11:29.270Z,9.30
2019-04-25T04:14:21.719Z,8.70
2019-04-25T04:17:24.259Z,8.60
2019-04-25T04:20:13.896Z,8.60
2019-04-25T04:22:49.984Z,8.80
2019-04-25T04:28:00.573Z,9.00
2019-04-25T04:30:30.597Z,9.20
2019-04-25T04:33:03.630Z,9.30
2019-04-25T04:35:36.515Z,9.20
2019-04-25T04:38:06.037Z,9.20
2019-04-25T04:40:36.179Z,9.20
2019-04-25T04:45:44.982Z,9.20
2019-04-25T04:48:43.827Z,9.20
2019-04-25T04:51:16.890Z,9.20
2019-04-25T04:53:55.042Z,9.20
2019-04-25T04:56:29.722Z,9.20
2019-04-25T05:02:05.909Z,9.30
2019-04-25T05:05:03.643Z,9.30
2019-04-25T05:07:50.596Z,9.30
2019-04-25T05:10:27.717Z,9.10
2019-04-25T05:21:04.161Z,9.60
2019-04-25T05:23:34.392Z,9.60
2019-04-25T05:26:04.767Z,9.70
2019-04-25T05:28:35.449Z,9.80
2019-04-25T05:31:19.844Z,9.90
2019-04-25T05:36:29.041Z,9.90
2019-04-25T05:39:04.509Z,10.00
2019-04-25T05:41:40.164Z,10.20
2019-04-25T05:44:16.951Z,10.30
2019-04-25T05:46:54.082Z,10.40
2019-04-25T05:49:25.471Z,10.50
2019-04-25T05:52:00.256Z,10.60
2019-04-25T05:54:32.013Z,10.80
2019-04-25T05:57:03.680Z,10.90
2019-04-25T05:59:37.726Z,11.00
2019-04-25T06:02:09.451Z,11.10
2019-04-25T06:04:53.387Z,11.20
2019-04-25T06:07:25.793Z,11.30
2019-04-25T06:10:21.749Z,11.30
2019-04-25T06:19:44.504Z,11.70
2019-04-25T06:23:29.462Z,11.60
2019-04-25T06:26:16.069Z,11.80
2019-04-25T06:28:49.296Z,12.00
2019-04-25T06:31:13.816Z,12.10
2019-04-25T06:33:44.991Z,12.20
2019-04-25T06:36:15.573Z,12.20
2019-04-25T06:39:17.367Z,12.40
2019-04-25T06:42:13.719Z,12.40
2019-04-25T06:49:16.848Z,12.60
2019-04-25T07:04:11.715Z,13.00
2019-04-25T07:10:38.682Z,13.20
2019-04-25T07:22:53.692Z,13.70
2019-04-25T07:25:28.609Z,13.90
2019-04-25T07:28:35.674Z,14.10
2019-04-25T07:31:20.933Z,14.20
2019-04-25T07:34:05.734Z,14.30
2019-04-25T07:37:13.237Z,14.30
2019-04-25T07:50:57.650Z,14.90
2019-04-25T07:53:47.454Z,15.10
2019-04-25T07:57:53.247Z,15.30
2019-04-25T08:00:51.623Z,15.30
2019-04-25T08:03:34.119Z,15.50
2019-04-25T08:09:31.514Z,15.70
2019-04-25T08:12:05.117Z,15.90
2019-04-25T08:15:05.673Z,16.00
2019-04-25T08:21:16.966Z,16.20
2019-04-25T08:23:49.793Z,16.30
2019-04-25T08:26:23.971Z,16.30
2019-04-25T08:28:57.241Z,16.40
2019-04-25T08:31:27.264Z,16.60
2019-04-25T08:33:59.079Z,16.80
2019-04-25T08:44:37.764Z,17.30
2019-04-25T08:50:36.775Z,17.50
2019-04-25T08:53:06.316Z,17.50
2019-04-25T08:56:10.349Z,17.70
2019-04-25T08:59:14.836Z,17.70
2019-04-25T09:18:07.171Z,18.40
2019-04-25T09:20:42.049Z,18.40
2019-04-25T09:23:16.245Z,18.40
2019-04-25T09:25:47.697Z,18.60
2019-04-25T09:28:34.857Z,18.70
2019-04-25T09:31:08.227Z,18.70
2019-04-25T09:36:54.001Z,19.00
2019-04-25T09:39:47.485Z,19.10
2019-04-25T09:42:20.488Z,19.30
2019-04-25T09:45:13.370Z,19.30
2019-04-25T09:47:46.488Z,19.40
2019-04-25T09:50:38.213Z,19.40
2019-04-25T09:53:23.607Z,19.60
2019-04-25T09:58:57.631Z,19.60
2019-04-25T10:01:29.699Z,19.80
2019-04-25T10:04:13.350Z,19.70
2019-04-25T10:07:18.764Z,19.90
2019-04-25T10:10:17.855Z,19.90
2019-04-25T10:16:12.954Z,20.20
2019-04-25T10:18:46.387Z,20.40
2019-04-25T10:21:19.357Z,20.40
2019-04-25T10:23:51.215Z,20.50
2019-04-25T10:26:23.449Z,20.60
2019-04-25T10:28:55.391Z,20.80
2019-04-25T10:35:00.050Z,20.90
2019-04-25T10:41:59.234Z,20.90
2019-04-25T10:45:23.116Z,21.10
2019-04-25T10:48:34.540Z,21.40
2019-04-25T10:51:24.013Z,21.50
2019-04-25T10:59:33.584Z,21.40
2019-04-25T11:02:09.426Z,21.50
2019-04-25T11:10:50.801Z,21.80
2019-04-25T11:13:23.124Z,21.90
2019-04-25T11:15:55.850Z,22.20
2019-04-25T11:18:25.266Z,22.00
2019-04-25T11:20:56.305Z,22.40
2019-04-25T11:23:30.210Z,22.80
2019-04-25T11:26:03.922Z,22.80
2019-04-25T11:28:42.513Z,22.80
2019-04-25T11:33:14.322Z,23.00
2019-04-25T11:38:52.187Z,23.40
2019-04-25T11:41:46.112Z,23.30
2019-04-25T11:47:27.180Z,23.20
2019-04-25T11:53:59.292Z,23.80
2019-04-25T11:56:18.306Z,24.10
2019-04-25T12:00:04.122Z,23.80
2019-04-25T12:02:38.016Z,23.90
2019-04-25T12:12:25.229Z,23.60
2019-04-25T12:17:32.781Z,23.60
2019-04-25T12:20:05.759Z,23.60
2019-04-25T12:22:35.829Z,23.50
2019-04-25T12:25:09.303Z,23.40
2019-04-25T12:29:01.184Z,23.30
2019-04-25T12:31:54.764Z,23.30
2019-04-25T12:38:39.437Z,23.60
2019-04-25T12:54:11.629Z,23.80
2019-04-25T13:08:20.111Z,23.60
2019-04-25T13:10:54.461Z,23.50
2019-04-25T13:16:30.069Z,23.60
2019-04-25T13:19:12.473Z,23.50
2019-04-25T13:21:34.585Z,23.50
2019-04-25T13:24:06.855Z,23.60
2019-04-25T13:26:43.522Z,23.60
2019-04-25T13:29:35.281Z,23.50
2019-04-25T13:32:23.813Z,23.50
2019-04-25T13:34:53.834Z,23.50
2019-04-25T13:37:24.195Z,23.50
2019-04-25T13:39:54.191Z,23.60
2019-04-25T13:42:24.317Z,23.60
2019-04-25T13:44:54.363Z,23.70
2019-04-25T13:47:28.001Z,23.90
2019-04-25T13:49:56.910Z,23.90
2019-04-25T13:52:28.936Z,23.90
2019-04-25T13:54:59.559Z,23.90
2019-04-25T13:57:29.949Z,23.80
2019-04-25T14:00:00.071Z,23.80
2019-04-25T14:02:30.201Z,23.80
2019-04-25T14:05:03.597Z,23.80
2019-04-25T14:07:36.610Z,23.80
2019-04-25T14:13:13.397Z,23.60
2019-04-25T14:15:48.294Z,23.70
2019-04-25T14:18:37.472Z,23.70
2019-04-25T14:23:48.148Z,23.60
2019-04-25T14:26:18.955Z,23.60
2019-04-25T14:28:48.480Z,23.50
2019-04-25T14:31:35.465Z,23.60
2019-04-25T14:33:51.771Z,23.60
2019-04-25T14:36:25.802Z,23.50
2019-04-25T14:38:54.378Z,23.50
2019-04-25T14:41:24.152Z,23.40
2019-04-25T14:43:53.754Z,23.40
2019-04-25T14:46:23.730Z,23.30
2019-04-25T14:48:54.576Z,23.30
2019-04-25T14:51:24.562Z,23.40
2019-04-25T14:53:55.463Z,23.30
2019-04-25T14:56:32.811Z,23.30
2019-04-25T14:59:03.533Z,23.30
2019-04-25T15:01:44.025Z,23.30
2019-04-25T15:04:04.876Z,23.30
2019-04-25T15:06:34.920Z,23.40
2019-04-25T15:09:05.845Z,23.30
2019-04-25T15:11:36.143Z,23.30
2019-04-25T15:14:06.373Z,23.40
2019-04-25T15:16:36.470Z,23.50
2019-04-25T15:19:06.714Z,23.50
2019-04-25T15:21:36.429Z,23.50
2019-04-25T15:24:06.343Z,23.50
2019-04-25T15:26:36.570Z,23.40
2019-04-25T15:29:06.935Z,23.50
2019-04-25T15:31:36.586Z,23.50
2019-04-25T15:34:07.192Z,23.50
2019-04-25T15:36:58.401Z,23.50
2019-04-25T15:39:45.070Z,23.40
2019-04-25T15:42:33.998Z,23.30
2019-04-25T15:45:41.815Z,23.20
2019-04-25T15:48:11.801Z,23.10
2019-04-25T15:50:41.813Z,23.00
2019-04-25T15:53:11.634Z,22.90
2019-04-25T15:55:41.648Z,22.80
2019-04-25T15:58:12.655Z,22.80
2019-04-25T16:00:42.770Z,22.80
2019-04-25T16:03:14.543Z,22.90
2019-04-25T16:05:45.058Z,22.90
2019-04-25T16:08:15.515Z,22.90
2019-04-25T16:10:45.976Z,22.90
2019-04-25T16:13:18.110Z,22.80
2019-04-25T16:15:54.066Z,22.80
2019-04-25T16:18:24.420Z,22.80
2019-04-25T16:20:54.634Z,22.90
2019-04-25T16:23:24.669Z,22.90
2019-04-25T16:25:54.750Z,22.90
2019-04-25T16:28:26.549Z,22.80
2019-04-25T16:30:58.284Z,22.80
2019-04-25T16:33:29.165Z,22.60
2019-04-25T16:35:59.393Z,22.60
2019-04-25T16:38:31.905Z,22.50
2019-04-25T16:41:01.971Z,22.40
2019-04-25T16:43:35.449Z,22.40
2019-04-25T16:46:06.691Z,22.50
2019-04-25T16:48:39.190Z,22.80
2019-04-25T16:52:52.583Z,23.30
2019-04-25T17:06:01.992Z,22.90
2019-04-25T17:09:20.262Z,22.80
2019-04-25T17:14:39.571Z,22.30
2019-04-25T17:20:44.921Z,21.80
2019-04-25T17:24:13.004Z,21.70
2019-04-25T17:30:42.150Z,21.40
2019-04-25T17:33:45.015Z,21.20
2019-04-25T17:47:54.492Z,20.70
2019-04-25T17:50:22.499Z,20.60
2019-04-25T17:52:53.519Z,20.60
2019-04-25T17:55:29.366Z,20.50
2019-04-25T17:58:05.347Z,20.40
2019-04-25T18:00:42.673Z,20.30
2019-04-25T18:03:25.278Z,20.20
2019-04-25T18:06:01.278Z,20.20
2019-04-25T18:08:58.213Z,20.10
2019-04-25T18:12:22.345Z,20.00
2019-04-25T18:33:29.361Z,18.20
2019-04-25T18:36:25.681Z,17.90
2019-04-25T18:39:14.891Z,17.70
2019-04-25T18:42:05.058Z,17.30
2019-04-25T18:44:36.633Z,17.10
2019-04-25T18:47:06.820Z,16.90
2019-04-25T18:49:38.565Z,16.80
2019-04-25T18:52:20.632Z,16.70
2019-04-25T18:55:14.144Z,16.40
2019-04-25T18:58:10.964Z,16.20
2019-04-25T19:04:39.976Z,15.90
2019-04-25T19:07:22.778Z,15.80
2019-04-25T19:10:45.656Z,15.50
2019-04-25T19:14:10.863Z,15.40
2019-04-25T19:16:43.012Z,15.20
2019-04-25T19:19:22.315Z,15.20
2019-04-25T19:22:40.151Z,15.10
2019-04-25T19:25:43.635Z,15.00
2019-04-25T19:31:17.398Z,14.80
2019-04-25T19:33:48.794Z,14.70
2019-04-25T19:36:25.523Z,14.60
2019-04-25T19:38:56.081Z,14.60
2019-04-25T19:41:31.950Z,14.50
2019-04-25T19:44:26.017Z,14.40
2019-04-25T19:52:52.755Z,14.10
2019-04-25T19:58:27.376Z,13.90
2019-04-25T20:01:00.863Z,13.60
2019-04-25T20:03:56.428Z,13.50
2019-04-25T20:07:22.706Z,13.50
2019-04-25T20:10:46.780Z,13.60
2019-04-25T20:13:30.600Z,13.40
2019-04-25T20:19:09.487Z,13.20
2019-04-25T20:24:33.807Z,13.40
2019-04-25T20:27:04.201Z,13.30
2019-04-25T20:29:34.579Z,13.40
2019-04-25T20:32:07.032Z,13.30
2019-04-25T20:34:36.879Z,13.00
2019-04-25T20:37:09.044Z,12.90
2019-04-25T20:39:38.668Z,12.80
2019-04-25T20:42:27.502Z,12.70
2019-04-25T20:45:10.731Z,12.60
2019-04-25T20:47:56.948Z,12.50
2019-04-25T20:50:28.410Z,12.40
2019-04-25T20:53:02.580Z,12.50
2019-04-25T20:56:28.029Z,12.40
2019-04-25T20:59:21.193Z,12.40
2019-04-25T21:02:08.397Z,12.50
2019-04-25T21:07:44.738Z,12.50
2019-04-25T21:10:29.426Z,12.30
2019-04-25T21:16:50.557Z,12.10
2019-04-25T21:19:27.531Z,12.00
2019-04-25T21:21:58.718Z,12.00
2019-04-25T21:24:29.210Z,12.00
2019-04-25T21:27:01.096Z,12.00
2019-04-25T21:29:32.479Z,12.00
2019-04-25T21:32:02.947Z,12.10
2019-04-25T21:34:32.749Z,12.10
2019-04-25T21:37:14.303Z,12.20
2019-04-25T21:39:55.794Z,12.20
2019-04-25T21:42:48.278Z,12.30
2019-04-25T21:45:22.813Z,12.20
2019-04-25T21:47:57.081Z,12.20
2019-04-25T21:50:48.498Z,12.00
2019-04-25T21:53:20.137Z,11.90
2019-04-25T21:55:56.886Z,12.00
2019-04-25T21:58:35.990Z,12.00
2019-04-25T22:01:21.627Z,12.00
2019-04-25T22:03:51.501Z,12.00
2019-04-25T22:06:22.135Z,12.00
2019-04-25T22:09:15.159Z,12.00
2019-04-25T22:14:26.114Z,11.90
2019-04-25T22:16:57.679Z,12.00
2019-04-25T22:19:29.423Z,11.90
2019-04-25T22:22:00.555Z,11.90
2019-04-25T22:24:35.046Z,11.90
2019-04-25T22:27:07.407Z,11.80
2019-04-25T22:29:41.557Z,11.90
2019-04-25T22:32:37.294Z,11.90
2019-04-25T22:35:17.940Z,11.70
2019-04-25T22:40:40.023Z,11.50
2019-04-25T22:43:23.160Z,11.60
2019-04-25T22:45:54.353Z,11.60
2019-04-25T22:54:07.178Z,11.40
2019-04-25T22:56:38.054Z,11.60
2019-04-25T22:59:09.095Z,11.40
2019-04-25T23:02:18.833Z,11.20
2019-04-25T23:05:14.100Z,11.30
2019-04-25T23:07:48.836Z,11.30
2019-04-25T23:10:50.412Z,11.20
2019-04-25T23:13:21.216Z,11.00
2019-04-25T23:15:58.275Z,11.00
2019-04-25T23:18:28.973Z,11.00
2019-04-25T23:20:58.927Z,11.00
2019-04-25T23:23:32.399Z,11.00
2019-04-25T23:26:08.346Z,11.10
2019-04-25T23:28:55.077Z,10.80
2019-04-25T23:31:47.214Z,10.70
2019-04-25T23:34:19.925Z,10.50
2019-04-25T23:36:56.162Z,10.20
2019-04-25T23:39:28.798Z,10.20
2019-04-25T23:41:59.956Z,10.40
2019-04-25T23:44:30.710Z,10.50
2019-04-25T23:47:07.262Z,10.60
2019-04-25T23:49:59.361Z,10.60
2019-04-25T23:52:44.143Z,10.60
2019-04-25T23:55:15.608Z,10.80
